Time;durP1;ratioP1;P1;durP2;ratioP2;P2;SDS_P1;SDS_P2;PMS_P1;PMS_P2;Temp;Humidity;BMP_temperature;BMP_pressure;BME280_temperature;BME280_humidity;BME280_pressure;Samples;Min_cycle;Max_cycle;Signal;HPM_P1;HPM_P2
2023/04/13 00:00:22;;;;;;;0.87;0.63;;;9.10;99.40;;;;;;938193;149;27362;-79
2023/04/13 00:02:52;;;;;;;0.83;0.70;;;9.10;99.30;;;;;;943960;148;27425;-79
2023/04/13 00:05:15;;;;;;;0.53;0.53;;;9.10;99.20;;;;;;944441;148;27357;-79
2023/04/13 00:07:42;;;;;;;0.73;0.73;;;9.10;99.20;;;;;;935744;148;27417;-79
2023/04/13 00:10:08;;;;;;;1.40;0.60;;;9.10;99.20;;;;;;938620;149;27763;-79
2023/04/13 00:12:35;;;;;;;0.70;0.70;;;9.20;99.30;;;;;;927029;150;27401;-80
2023/04/13 00:15:02;;;;;;;0.67;0.50;;;9.20;99.40;;;;;;926017;150;27374;-79
2023/04/13 00:17:28;;;;;;;1.13;0.90;;;9.20;99.50;;;;;;943270;148;27399;-80
2023/04/13 00:19:58;;;;;;;2.30;1.17;;;9.30;99.40;;;;;;939828;148;27411;-80
2023/04/13 00:22:22;;;;;;;0.97;0.80;;;9.30;99.10;;;;;;936910;148;27426;-77
2023/04/13 00:24:48;;;;;;;0.80;0.63;;;9.30;98.70;;;;;;937368;149;27664;-77
2023/04/13 00:27:14;;;;;;;0.60;0.60;;;9.40;98.40;;;;;;931833;149;27313;-79
2023/04/13 00:29:41;;;;;;;1.67;0.67;;;9.40;98.00;;;;;;939342;150;27435;-79
2023/04/13 00:32:08;;;;;;;0.77;0.70;;;9.40;97.60;;;;;;935263;149;27350;-79
2023/04/13 00:34:34;;;;;;;1.37;0.50;;;9.40;97.40;;;;;;943936;148;27348;-77
2023/04/13 00:37:02;;;;;;;0.57;0.57;;;9.40;97.30;;;;;;943943;148;27258;-77
2023/04/13 00:39:29;;;;;;;0.63;0.63;;;9.50;97.00;;;;;;939239;150;27346;-77
2023/04/13 00:41:54;;;;;;;0.90;0.90;;;9.50;96.90;;;;;;919540;150;27386;-79
2023/04/13 00:44:21;;;;;;;0.83;0.50;;;9.50;96.60;;;;;;922148;150;27375;-77
2023/04/13 00:46:47;;;;;;;2.43;0.90;;;9.50;96.50;;;;;;924394;150;27352;-77
2023/04/13 00:49:14;;;;;;;0.63;0.60;;;9.50;96.20;;;;;;923536;150;27437;-79
2023/04/13 00:51:40;;;;;;;1.33;0.77;;;9.50;96.10;;;;;;922735;150;27322;-79
2023/04/13 00:54:07;;;;;;;1.33;0.77;;;9.50;95.90;;;;;;919641;151;27647;-77
2023/04/13 00:56:36;;;;;;;1.17;0.90;;;9.50;95.90;;;;;;937756;148;27363;-77
2023/04/13 00:59:00;;;;;;;1.40;0.90;;;9.50;95.70;;;;;;911864;155;27352;-77
2023/04/13 01:01:29;;;;;;;1.53;1.00;;;9.50;95.50;;;;;;936445;149;27341;-79
2023/04/13 01:03:53;;;;;;;0.60;0.60;;;9.50;95.40;;;;;;938911;150;27291;-79
2023/04/13 01:06:25;;;;;;;1.43;0.67;;;9.50;95.20;;;;;;943088;148;27356;-79
2023/04/13 01:08:50;;;;;;;0.70;0.70;;;9.50;95.10;;;;;;942056;148;27424;-77
2023/04/13 01:11:19;;;;;;;1.03;0.70;;;9.50;95.00;;;;;;925131;150;27359;-79
2023/04/13 01:13:46;;;;;;;1.13;0.83;;;9.50;95.00;;;;;;919790;149;27314;-79
2023/04/13 01:16:12;;;;;;;0.67;0.67;;;9.40;94.90;;;;;;932767;149;27411;-79
2023/04/13 01:18:39;;;;;;;1.67;0.80;;;9.40;94.80;;;;;;935843;150;27438;-79
2023/04/13 01:21:06;;;;;;;1.10;0.60;;;9.40;94.70;;;;;;922144;150;27470;-79
2023/04/13 01:24:00;;;;;;;0.87;0.87;;;9.40;94.60;;;;;;936329;148;27310;-79
2023/04/13 01:26:27;;;;;;;1.23;0.73;;;9.30;94.50;;;;;;934904;148;27453;-79
2023/04/13 01:28:53;;;;;;;0.70;0.60;;;9.30;94.50;;;;;;938392;149;27305;-78
2023/04/13 01:31:19;;;;;;;1.13;0.90;;;9.30;94.50;;;;;;939332;149;27338;-78
2023/04/13 01:33:46;;;;;;;2.00;0.77;;;9.20;94.60;;;;;;937070;148;27362;-79
2023/04/13 01:36:13;;;;;;;1.53;0.90;;;9.20;94.60;;;;;;937011;148;27266;-78
2023/04/13 01:38:39;;;;;;;1.00;0.97;;;9.10;94.50;;;;;;937085;148;27322;-79
2023/04/13 01:41:07;;;;;;;1.33;0.80;;;9.10;94.50;;;;;;937159;148;27318;-78
2023/04/13 01:43:33;;;;;;;2.40;0.90;;;9.10;94.60;;;;;;935110;149;27412;-78
2023/04/13 01:46:14;;;;;;;2.00;0.80;;;9.10;94.60;;;;;;939982;150;27353;-78
2023/04/13 01:48:47;;;;;;;0.50;0.50;;;9.10;94.50;;;;;;929450;149;27358;-78
2023/04/13 01:51:13;;;;;;;0.70;0.70;;;9.00;94.50;;;;;;934741;149;27440;-78
2023/04/13 01:53:40;;;;;;;1.00;0.70;;;9.00;94.50;;;;;;934369;149;27431;-78
2023/04/13 01:56:06;;;;;;;1.47;0.80;;;9.00;94.50;;;;;;940238;150;27357;-79
2023/04/13 01:58:33;;;;;;;0.90;0.90;;;9.00;94.40;;;;;;940248;150;27395;-78
2023/04/13 02:00:59;;;;;;;2.60;1.07;;;9.00;94.40;;;;;;931479;149;27329;-78
2023/04/13 02:03:27;;;;;;;2.63;0.93;;;9.00;94.40;;;;;;935281;149;27423;-78
2023/04/13 02:05:53;;;;;;;1.80;1.03;;;9.00;94.30;;;;;;937112;150;27362;-78
2023/04/13 02:08:19;;;;;;;2.77;1.03;;;9.00;94.40;;;;;;929767;148;27357;-78
2023/04/13 02:10:46;;;;;;;2.83;1.00;;;8.90;94.30;;;;;;938678;150;27429;-78
2023/04/13 02:13:12;;;;;;;2.03;0.80;;;9.00;94.40;;;;;;937437;149;27333;-78
2023/04/13 02:15:40;;;;;;;2.20;1.00;;;9.00;94.40;;;;;;937282;148;27394;-78
2023/04/13 02:18:05;;;;;;;2.33;0.97;;;9.00;94.30;;;;;;935459;149;27751;-78
2023/04/13 02:20:37;;;;;;;1.00;0.90;;;9.00;94.10;;;;;;935775;149;27379;-78
2023/04/13 02:23:00;;;;;;;0.67;0.67;;;9.00;94.00;;;;;;934818;149;27403;-78
2023/04/13 02:25:26;;;;;;;2.47;0.90;;;8.90;93.90;;;;;;943308;148;27401;-78
2023/04/13 02:27:52;;;;;;;1.97;1.10;;;8.90;93.80;;;;;;938211;148;27454;-78
2023/04/13 02:30:18;;;;;;;1.23;0.80;;;8.90;93.70;;;;;;916492;150;27881;-78
2023/04/13 02:32:46;;;;;;;1.10;0.80;;;8.90;93.60;;;;;;919461;150;27442;-78
2023/04/13 02:35:12;;;;;;;1.67;0.77;;;8.80;93.30;;;;;;936831;148;27291;-78
2023/04/13 02:37:39;;;;;;;1.07;0.70;;;8.80;93.60;;;;;;924172;150;27633;-78
2023/04/13 02:40:08;;;;;;;1.57;1.13;;;8.80;93.70;;;;;;914241;151;27360;-78
2023/04/13 02:42:34;;;;;;;1.73;0.90;;;8.80;93.80;;;;;;936457;150;27301;-78
2023/04/13 02:45:01;;;;;;;1.53;0.80;;;8.80;93.90;;;;;;944730;148;27771;-78
2023/04/13 02:47:27;;;;;;;1.03;0.90;;;8.80;94.00;;;;;;928166;150;27355;-78
2023/04/13 02:49:54;;;;;;;1.57;1.10;;;8.80;94.10;;;;;;940871;150;27370;-78
2023/04/13 02:52:20;;;;;;;0.70;0.70;;;8.80;94.20;;;;;;939866;150;27278;-78
2023/04/13 02:54:47;;;;;;;1.40;0.93;;;8.80;94.40;;;;;;931473;150;27699;-78
2023/04/13 02:57:14;;;;;;;1.37;0.90;;;8.80;94.30;;;;;;930901;150;27459;-78
2023/04/13 02:59:40;;;;;;;1.20;0.80;;;8.90;94.40;;;;;;940420;150;27366;-78
2023/04/13 03:02:07;;;;;;;2.90;1.20;;;8.90;94.30;;;;;;939976;150;27364;-78
2023/04/13 03:04:33;;;;;;;1.43;1.00;;;8.90;94.30;;;;;;940191;150;27512;-78
2023/04/13 03:07:03;;;;;;;2.70;1.10;;;9.00;94.30;;;;;;943168;148;27431;-78
2023/04/13 03:09:28;;;;;;;1.23;0.80;;;9.00;94.30;;;;;;931456;150;27364;-78
2023/04/13 03:11:55;;;;;;;2.17;1.00;;;9.10;94.30;;;;;;931935;150;27690;-78
2023/04/13 03:14:22;;;;;;;1.97;0.97;;;9.10;94.00;;;;;;939964;150;28143;-78
2023/04/13 03:16:50;;;;;;;2.00;1.20;;;9.10;93.70;;;;;;947644;147;27315;-78
2023/04/13 03:19:15;;;;;;;1.30;1.13;;;9.20;93.60;;;;;;948421;147;27323;-78
2023/04/13 03:21:43;;;;;;;3.27;1.17;;;9.20;93.40;;;;;;941307;149;27389;-77
2023/04/13 03:24:08;;;;;;;3.13;1.27;;;9.20;93.30;;;;;;922841;151;27333;-78
2023/04/13 03:26:35;;;;;;;2.57;0.87;;;9.20;93.10;;;;;;940362;149;27280;-78
2023/04/13 03:29:02;;;;;;;1.43;0.90;;;9.20;93.20;;;;;;942136;149;27305;-79
2023/04/13 03:31:28;;;;;;;2.67;0.90;;;9.20;93.20;;;;;;938326;148;27353;-78
2023/04/13 03:33:56;;;;;;;3.23;1.60;;;9.30;93.40;;;;;;944298;148;27406;-78
2023/04/13 03:36:21;;;;;;;1.37;0.73;;;9.30;93.60;;;;;;944165;148;27256;-77
2023/04/13 03:38:48;;;;;;;1.13;1.03;;;9.40;93.70;;;;;;925418;150;27300;-78
2023/04/13 03:41:14;;;;;;;2.00;0.80;;;9.40;93.60;;;;;;939830;150;27479;-78
2023/04/13 03:43:41;;;;;;;1.33;0.90;;;9.50;93.40;;;;;;945288;148;27457;-78
2023/04/13 03:46:08;;;;;;;2.20;1.07;;;9.50;93.30;;;;;;949566;147;27382;-78
2023/04/13 03:48:34;;;;;;;0.73;0.73;;;9.50;93.20;;;;;;940826;149;27310;-78
2023/04/13 03:51:01;;;;;;;1.23;1.13;;;9.50;93.00;;;;;;941201;149;27480;-78
2023/04/13 03:53:27;;;;;;;0.80;0.70;;;9.60;93.10;;;;;;943462;148;27371;-78
2023/04/13 03:55:54;;;;;;;2.17;1.10;;;9.70;92.90;;;;;;943651;148;27353;-78
2023/04/13 03:58:20;;;;;;;1.17;0.97;;;9.70;92.90;;;;;;943327;148;27314;-78
2023/04/13 04:00:47;;;;;;;1.73;1.00;;;9.70;92.90;;;;;;941556;149;27426;-77
2023/04/13 04:03:16;;;;;;;2.37;1.07;;;9.80;92.80;;;;;;942146;149;27450;-78
2023/04/13 04:05:41;;;;;;;2.03;1.27;;;9.80;92.70;;;;;;940878;149;27365;-78
2023/04/13 04:08:07;;;;;;;7.27;1.43;;;9.90;92.60;;;;;;943710;148;27317;-78
2023/04/13 04:10:33;;;;;;;2.77;1.10;;;10.00;92.00;;;;;;927881;150;27369;-78
2023/04/13 04:13:00;;;;;;;7.07;1.10;;;10.00;91.90;;;;;;940605;149;27329;-78
2023/04/13 04:15:27;;;;;;;2.17;0.90;;;10.10;92.00;;;;;;933482;150;27396;-78
2023/04/13 04:17:53;;;;;;;2.30;1.47;;;10.20;92.00;;;;;;943475;148;27846;-78
2023/04/13 04:20:20;;;;;;;2.80;1.30;;;10.20;91.80;;;;;;948895;147;27290;-78
2023/04/13 04:22:46;;;;;;;1.30;1.20;;;10.30;91.40;;;;;;944485;148;27355;-78
2023/04/13 04:25:22;;;;;;;1.27;1.17;;;10.40;91.40;;;;;;943481;148;27286;-78
2023/04/13 04:27:49;;;;;;;1.80;0.97;;;10.40;91.40;;;;;;941803;149;27388;-78
2023/04/13 04:30:17;;;;;;;3.93;1.30;;;10.40;91.20;;;;;;941328;149;27254;-78
2023/04/13 04:32:42;;;;;;;1.80;0.90;;;10.50;91.20;;;;;;941352;149;27338;-78
2023/04/13 04:35:08;;;;;;;2.53;1.20;;;10.50;91.10;;;;;;942957;148;27282;-78
2023/04/13 04:37:36;;;;;;;1.10;0.80;;;10.60;90.90;;;;;;938464;150;27369;-78
2023/04/13 04:40:06;;;;;;;2.73;1.03;;;10.60;90.70;;;;;;938272;150;27362;-78
2023/04/13 04:42:28;;;;;;;2.50;1.00;;;10.60;90.60;;;;;;943241;148;27286;-78
2023/04/13 04:44:55;;;;;;;1.60;0.90;;;10.60;90.40;;;;;;940040;149;27397;-78
2023/04/13 04:47:23;;;;;;;1.80;0.97;;;10.70;90.20;;;;;;940008;150;27528;-78
2023/04/13 04:49:48;;;;;;;2.50;1.17;;;10.70;90.30;;;;;;941401;149;27710;-78
2023/04/13 04:52:14;;;;;;;3.13;1.13;;;10.70;90.10;;;;;;941452;152;27442;-78
2023/04/13 04:54:41;;;;;;;3.83;1.10;;;10.70;90.20;;;;;;919514;155;27356;-78
2023/04/13 04:57:09;;;;;;;1.77;1.17;;;10.70;90.10;;;;;;924345;151;27276;-78
2023/04/13 04:59:34;;;;;;;2.47;1.00;;;10.70;89.90;;;;;;926359;153;27326;-78
2023/04/13 05:02:01;;;;;;;1.50;1.17;;;10.80;90.00;;;;;;926676;153;27447;-78
2023/04/13 05:04:27;;;;;;;1.97;1.10;;;10.80;89.90;;;;;;926232;154;27475;-78
2023/04/13 05:06:54;;;;;;;2.10;1.23;;;10.80;90.00;;;;;;944213;149;27397;-78
2023/04/13 05:09:21;;;;;;;1.73;1.20;;;10.80;89.90;;;;;;930444;154;27456;-78
2023/04/13 05:11:47;;;;;;;1.83;1.27;;;10.80;89.60;;;;;;943950;152;27337;-78
2023/04/13 05:14:14;;;;;;;1.53;1.10;;;10.80;89.60;;;;;;926417;154;27477;-78
2023/04/13 05:16:40;;;;;;;1.53;1.10;;;10.90;89.50;;;;;;943111;149;27292;-78
2023/04/13 05:19:07;;;;;;;2.77;1.20;;;10.90;89.60;;;;;;940919;151;27468;-78
2023/04/13 05:21:33;;;;;;;2.37;1.20;;;10.90;89.60;;;;;;942003;151;27314;-78
2023/04/13 05:24:00;;;;;;;3.50;1.37;;;10.90;89.20;;;;;;941435;149;27446;-78
2023/04/13 05:26:27;;;;;;;2.13;0.87;;;10.90;89.10;;;;;;927662;153;27470;-78
2023/04/13 05:28:53;;;;;;;2.00;1.03;;;11.00;88.80;;;;;;930759;153;27403;-78
2023/04/13 05:31:23;;;;;;;4.67;1.40;;;11.00;88.50;;;;;;943286;149;27494;-78
2023/04/13 05:33:46;;;;;;;2.90;1.13;;;11.00;88.30;;;;;;930072;151;27320;-78
2023/04/13 05:36:13;;;;;;;3.90;1.40;;;11.00;88.00;;;;;;929511;150;27360;-78
2023/04/13 05:38:40;;;;;;;2.37;1.20;;;11.00;88.00;;;;;;926082;151;27427;-78
2023/04/13 05:41:06;;;;;;;3.87;1.43;;;11.00;88.20;;;;;;926018;154;27274;-78
2023/04/13 05:43:33;;;;;;;3.50;1.37;;;11.00;88.10;;;;;;945293;149;27245;-78
2023/04/13 05:45:59;;;;;;;1.47;1.20;;;11.10;88.20;;;;;;946647;148;27276;-78
2023/04/13 05:48:26;;;;;;;4.13;1.43;;;11.10;88.00;;;;;;954998;147;27411;-78
2023/04/13 05:50:59;;;;;;;1.30;1.20;;;11.10;87.40;;;;;;955445;147;27242;-78
2023/04/13 05:53:25;;;;;;;5.60;1.63;;;11.10;87.70;;;;;;943597;150;27501;-79
2023/04/13 05:55:52;;;;;;;3.23;1.37;;;11.20;87.50;;;;;;932404;150;27422;-78
2023/04/13 05:58:19;;;;;;;3.13;1.33;;;11.20;87.60;;;;;;932127;150;27450;-78
2023/04/13 06:00:45;;;;;;;2.30;1.20;;;11.20;87.00;;;;;;947121;148;27436;-78
2023/04/13 06:03:12;;;;;;;2.03;1.40;;;11.20;87.50;;;;;;933947;151;27766;-78
2023/04/13 06:05:38;;;;;;;3.00;1.20;;;11.20;87.30;;;;;;943610;152;27325;-78
2023/04/13 06:08:05;;;;;;;1.10;1.00;;;11.20;87.50;;;;;;943716;149;27254;-78
2023/04/13 06:10:31;;;;;;;3.17;1.40;;;11.30;87.10;;;;;;941330;149;27384;-77
2023/04/13 06:12:58;;;;;;;2.00;1.23;;;11.30;87.00;;;;;;929058;153;27430;-78
2023/04/13 06:15:24;;;;;;;2.80;1.33;;;11.30;87.30;;;;;;936975;152;27372;-79
2023/04/13 06:17:51;;;;;;;4.83;1.37;;;11.40;87.20;;;;;;925044;151;27305;-78
2023/04/13 06:20:18;;;;;;;3.37;1.40;;;11.40;87.00;;;;;;929920;152;27306;-78
2023/04/13 06:22:44;;;;;;;2.97;1.40;;;11.40;87.20;;;;;;937379;152;27353;-78
2023/04/13 06:25:11;;;;;;;3.00;1.40;;;11.50;87.20;;;;;;923202;152;27315;-78
2023/04/13 06:27:37;;;;;;;3.57;1.27;;;11.50;87.00;;;;;;922388;154;27304;-78
2023/04/13 06:30:04;;;;;;;4.03;1.50;;;11.60;86.70;;;;;;923480;153;27388;-78
2023/04/13 06:32:31;;;;;;;4.43;1.60;;;11.60;86.40;;;;;;922181;155;27349;-79
2023/04/13 06:34:57;;;;;;;4.20;1.17;;;11.70;85.70;;;;;;919481;152;27387;-81
2023/04/13 06:37:24;;;;;;;3.80;1.90;;;11.70;84.80;;;;;;937299;151;27407;-81
2023/04/13 06:39:51;;;;;;;4.03;1.50;;;11.70;84.90;;;;;;929110;152;27303;-81
2023/04/13 06:42:17;;;;;;;2.60;1.37;;;11.70;85.40;;;;;;936220;152;27364;-81
2023/04/13 06:44:43;;;;;;;2.17;1.07;;;11.70;84.70;;;;;;921557;155;27388;-82
2023/04/13 06:47:10;;;;;;;5.57;1.77;;;11.70;83.90;;;;;;933883;151;27417;-81
2023/04/13 06:49:37;;;;;;;3.67;1.33;;;11.70;84.60;;;;;;947131;148;27341;-81
2023/04/13 06:52:03;;;;;;;2.33;1.47;;;11.80;84.40;;;;;;943620;148;27404;-82
2023/04/13 06:54:30;;;;;;;4.13;1.60;;;11.80;84.50;;;;;;943435;148;27352;-81
2023/04/13 06:56:56;;;;;;;5.70;1.53;;;11.80;83.80;;;;;;941688;149;27477;-81
2023/04/13 06:59:23;;;;;;;7.30;2.87;;;11.80;83.50;;;;;;941515;149;27366;-81
2023/04/13 07:01:50;;;;;;;3.43;1.60;;;11.80;83.80;;;;;;941382;149;27341;-81
2023/04/13 07:04:16;;;;;;;6.47;1.73;;;11.80;84.00;;;;;;943233;148;27383;-81
2023/04/13 07:06:43;;;;;;;3.53;2.00;;;11.80;85.10;;;;;;943730;148;27369;-81
2023/04/13 07:09:09;;;;;;;5.20;1.70;;;11.80;84.00;;;;;;944582;147;27343;-81
2023/04/13 07:11:36;;;;;;;2.90;1.40;;;11.90;83.90;;;;;;937607;150;27326;-81
2023/04/13 07:14:03;;;;;;;4.33;2.50;;;11.90;83.50;;;;;;943519;148;27290;-81
2023/04/13 07:16:29;;;;;;;6.07;1.70;;;11.90;84.10;;;;;;944176;148;27377;-81
2023/04/13 07:18:56;;;;;;;2.37;1.20;;;12.00;84.20;;;;;;938346;150;27498;-81
2023/04/13 07:21:22;;;;;;;5.60;1.70;;;12.10;84.30;;;;;;939003;150;27344;-81
2023/04/13 07:23:49;;;;;;;3.57;1.60;;;12.10;84.20;;;;;;943746;147;27341;-81
2023/04/13 07:26:17;;;;;;;1.97;1.13;;;12.20;84.20;;;;;;931327;150;27436;-81
2023/04/13 07:28:42;;;;;;;3.43;1.67;;;12.30;83.70;;;;;;940885;149;27433;-81
2023/04/13 07:31:09;;;;;;;6.23;1.73;;;12.30;82.90;;;;;;942372;149;27301;-81
2023/04/13 07:33:35;;;;;;;3.97;1.83;;;12.40;82.30;;;;;;940405;149;27379;-81
2023/04/13 07:36:02;;;;;;;5.23;2.13;;;12.40;81.80;;;;;;940759;149;27434;-81
2023/04/13 07:38:28;;;;;;;6.03;2.10;;;12.50;82.30;;;;;;940124;149;27363;-81
2023/04/13 07:40:55;;;;;;;5.63;1.63;;;12.50;81.50;;;;;;939577;149;27362;-81
2023/04/13 07:43:22;;;;;;;4.67;1.67;;;12.60;81.50;;;;;;940662;149;27346;-81
2023/04/13 07:45:48;;;;;;;4.60;2.27;;;12.60;81.70;;;;;;941340;149;27724;-81
2023/04/13 07:48:15;;;;;;;5.43;1.80;;;12.60;80.90;;;;;;934011;149;27361;-81
2023/04/13 07:50:41;;;;;;;3.57;1.70;;;12.70;81.60;;;;;;928425;153;27388;-81
2023/04/13 07:53:08;;;;;;;4.40;1.80;;;12.80;81.50;;;;;;930370;151;27371;-81
2023/04/13 07:55:35;;;;;;;5.40;1.83;;;12.80;80.20;;;;;;941664;152;27463;-81
2023/04/13 07:58:01;;;;;;;4.00;1.67;;;12.90;80.60;;;;;;940900;151;27403;-81
2023/04/13 08:00:28;;;;;;;6.27;1.77;;;12.90;81.00;;;;;;941980;149;27341;-80
2023/04/13 08:02:54;;;;;;;2.57;1.63;;;13.00;80.60;;;;;;927884;151;27365;-81
2023/04/13 08:05:21;;;;;;;4.60;1.63;;;13.00;80.50;;;;;;945285;151;27349;-81
2023/04/13 08:07:48;;;;;;;4.87;1.80;;;13.10;79.90;;;;;;943657;149;27387;-81
2023/04/13 08:10:15;;;;;;;4.53;1.60;;;13.10;79.70;;;;;;945376;149;27272;-81
2023/04/13 08:12:41;;;;;;;2.63;1.83;;;13.20;80.10;;;;;;943558;149;27343;-81
2023/04/13 08:15:08;;;;;;;5.23;1.60;;;13.20;80.20;;;;;;925692;155;27379;-81
2023/04/13 08:17:34;;;;;;;4.03;1.60;;;13.30;78.90;;;;;;925308;152;27460;-81
2023/04/13 08:20:01;;;;;;;3.00;1.43;;;13.40;78.80;;;;;;922539;154;27285;-81
2023/04/13 08:22:27;;;;;;;6.20;2.27;;;13.40;77.90;;;;;;925319;152;27437;-81
2023/04/13 08:24:55;;;;;;;4.08;1.92;;;13.40;78.40;;;;;;927769;152;27361;-80
2023/04/13 08:27:21;;;;;;;4.47;1.93;;;13.50;77.90;;;;;;927334;151;27350;-81
2023/04/13 08:29:47;;;;;;;2.80;1.60;;;13.50;78.20;;;;;;927706;153;27293;-81
2023/04/13 08:32:13;;;;;;;5.97;2.05;;;13.50;78.70;;;;;;942794;149;27422;-81
2023/04/13 08:34:40;;;;;;;5.03;2.00;;;13.60;78.80;;;;;;942094;149;27407;-81
2023/04/13 08:37:07;;;;;;;3.17;1.47;;;13.70;78.20;;;;;;944595;151;27437;-81
2023/04/13 08:39:33;;;;;;;4.47;1.73;;;13.80;78.30;;;;;;943096;151;27312;-81
2023/04/13 08:42:00;;;;;;;4.28;1.90;;;13.80;77.90;;;;;;938778;152;27341;-80
2023/04/13 08:44:26;;;;;;;4.93;1.93;;;13.90;76.90;;;;;;938560;149;27383;-81
2023/04/13 08:46:53;;;;;;;2.62;1.42;;;13.90;77.00;;;;;;930174;151;27322;-81
2023/04/13 08:49:20;;;;;;;2.92;1.50;;;14.00;77.00;;;;;;944258;148;27380;-80
2023/04/13 08:51:46;;;;;;;4.37;1.50;;;14.10;76.90;;;;;;919744;149;27521;-80
2023/04/13 08:54:14;;;;;;;5.35;2.05;;;14.10;77.50;;;;;;926655;150;27384;-80
2023/04/13 08:56:40;;;;;;;1.95;1.30;;;14.30;78.10;;;;;;927566;150;27338;-80
2023/04/13 08:59:06;;;;;;;1.80;1.27;;;14.30;78.50;;;;;;940087;150;27427;-80
2023/04/13 09:01:33;;;;;;;2.67;1.27;;;14.50;78.20;;;;;;940905;149;27391;-80
2023/04/13 09:03:59;;;;;;;2.47;1.45;;;14.60;78.10;;;;;;948399;148;27743;-80
2023/04/13 09:06:32;;;;;;;3.67;1.62;;;14.70;77.10;;;;;;936322;149;27297;-80
2023/04/13 09:08:58;;;;;;;4.20;1.50;;;14.90;77.50;;;;;;947593;147;27389;-80
2023/04/13 09:11:24;;;;;;;3.10;1.62;;;15.00;78.10;;;;;;943341;148;27289;-80
2023/04/13 09:13:51;;;;;;;3.80;1.52;;;15.10;77.90;;;;;;941142;149;27357;-80
2023/04/13 09:16:18;;;;;;;3.58;2.22;;;15.30;76.00;;;;;;920147;150;27405;-80
2023/04/13 09:18:50;;;;;;;3.47;1.50;;;15.50;75.40;;;;;;940088;150;27456;-80
2023/04/13 09:21:17;;;;;;;2.00;1.40;;;15.60;76.50;;;;;;938540;149;27427;-80
2023/04/13 09:23:58;;;;;;;4.05;1.40;;;15.80;75.00;;;;;;939325;150;27491;-80
2023/04/13 09:26:25;;;;;;;2.95;1.35;;;16.00;74.50;;;;;;939285;150;27404;-80
2023/04/13 09:28:51;;;;;;;3.20;1.50;;;16.20;77.00;;;;;;939165;150;27373;-80
2023/04/13 09:31:18;;;;;;;3.33;1.57;;;16.60;77.00;;;;;;938804;150;27374;-80
2023/04/13 09:33:45;;;;;;;3.05;1.52;;;17.00;77.70;;;;;;943746;148;27384;-80
2023/04/13 09:36:11;;;;;;;2.33;1.10;;;17.40;75.40;;;;;;943416;148;27298;-80
2023/04/13 09:38:38;;;;;;;2.58;1.27;;;17.80;72.30;;;;;;943894;148;27390;-81
2023/04/13 09:41:04;;;;;;;2.12;1.80;;;18.00;71.60;;;;;;945789;148;27426;-80
2023/04/13 09:43:36;;;;;;;3.12;1.30;;;18.20;70.30;;;;;;932250;149;27363;-80
2023/04/13 09:46:03;;;;;;;4.40;1.50;;;18.30;69.00;;;;;;941196;151;27277;-80
2023/04/13 09:48:30;;;;;;;3.02;1.57;;;18.30;69.00;;;;;;940244;151;27390;-80
2023/04/13 09:51:04;;;;;;;3.27;1.47;;;18.30;68.20;;;;;;943143;147;27352;-80
2023/04/13 09:53:29;;;;;;;3.95;1.75;;;18.40;66.70;;;;;;923848;150;27306;-80
2023/04/13 09:55:58;;;;;;;4.33;1.62;;;18.30;66.30;;;;;;927999;150;27381;-80
2023/04/13 09:58:25;;;;;;;2.67;1.55;;;18.20;65.90;;;;;;942193;149;27431;-80
2023/04/13 10:00:51;;;;;;;4.87;1.52;;;18.20;65.40;;;;;;943809;148;27430;-80
2023/04/13 10:03:21;;;;;;;1.65;1.05;;;18.00;64.60;;;;;;939241;150;27366;-80
2023/04/13 10:05:46;;;;;;;3.67;2.08;;;17.90;64.90;;;;;;938274;150;27346;-80
2023/04/13 10:08:12;;;;;;;3.42;1.42;;;17.90;66.70;;;;;;944727;148;27678;-80
2023/04/13 10:10:40;;;;;;;3.72;1.50;;;17.80;68.10;;;;;;941672;149;27390;-80
2023/04/13 10:13:13;;;;;;;2.98;1.67;;;17.90;68.00;;;;;;943541;148;27447;-80
2023/04/13 10:16:01;;;;;;;1.72;1.22;;;18.00;67.90;;;;;;920130;151;27804;-80
2023/04/13 10:18:56;;;;;;;2.98;1.22;;;18.10;68.00;;;;;;942957;149;27268;-80
2023/04/13 10:21:19;;;;;;;4.17;1.80;;;18.30;68.50;;;;;;943922;149;27336;-81
2023/04/13 10:23:45;;;;;;;2.87;1.30;;;18.50;69.30;;;;;;943665;149;27290;-81
2023/04/13 10:26:12;;;;;;;2.75;1.22;;;18.80;69.10;;;;;;944324;149;27496;-76
2023/04/13 10:28:44;;;;;;;2.50;1.20;;;19.00;68.60;;;;;;943556;148;27353;-76
2023/04/13 10:31:10;;;;;;;3.00;1.22;;;19.10;68.00;;;;;;936944;150;27313;-76
2023/04/13 10:33:46;;;;;;;2.20;1.10;;;19.30;66.80;;;;;;943509;148;27414;-76
2023/04/13 10:36:12;;;;;;;1.47;0.90;;;19.40;65.40;;;;;;944176;148;27437;-76
2023/04/13 10:38:42;;;;;;;2.00;1.00;;;19.40;64.90;;;;;;940547;149;27330;-76
2023/04/13 10:41:08;;;;;;;1.52;1.07;;;19.30;64.60;;;;;;942561;149;27275;-75
2023/04/13 10:43:35;;;;;;;1.95;1.30;;;19.30;63.20;;;;;;940606;149;27333;-75
2023/04/13 10:46:04;;;;;;;2.72;1.27;;;19.20;63.50;;;;;;942351;149;27365;-76
2023/04/13 10:48:31;;;;;;;3.75;1.60;;;19.10;62.90;;;;;;941166;149;27408;-75
2023/04/13 10:50:58;;;;;;;1.82;1.10;;;18.90;61.60;;;;;;943402;148;27333;-75
2023/04/13 10:53:24;;;;;;;1.37;1.00;;;18.80;62.60;;;;;;943596;148;27403;-76
2023/04/13 10:55:51;;;;;;;1.65;1.15;;;18.70;62.50;;;;;;931225;149;27364;-76
2023/04/13 10:58:17;;;;;;;2.35;0.98;;;18.70;63.40;;;;;;934054;149;27425;-75
2023/04/13 11:00:45;;;;;;;1.72;1.10;;;18.70;63.10;;;;;;937556;148;27398;-76
2023/04/13 11:03:10;;;;;;;2.65;1.02;;;18.60;63.30;;;;;;923262;150;27325;-75
2023/04/13 11:05:37;;;;;;;3.42;1.82;;;18.60;63.80;;;;;;933296;149;27376;-76
2023/04/13 11:08:04;;;;;;;1.95;1.32;;;18.60;63.90;;;;;;935474;149;27332;-75
2023/04/13 11:10:31;;;;;;;1.60;1.07;;;18.60;63.90;;;;;;932655;149;27415;-76
2023/04/13 11:12:57;;;;;;;2.37;1.30;;;18.60;64.00;;;;;;945261;147;27260;-76
2023/04/13 11:15:31;;;;;;;1.98;1.00;;;18.70;64.10;;;;;;921330;150;27366;-76
2023/04/13 11:17:56;;;;;;;1.80;1.57;;;18.70;63.90;;;;;;919923;150;27406;-76
2023/04/13 11:20:32;;;;;;;2.15;1.67;;;18.70;63.60;;;;;;937028;148;27336;-75
2023/04/13 11:22:58;;;;;;;1.72;1.40;;;18.60;62.80;;;;;;937536;150;27464;-76
2023/04/13 11:25:25;;;;;;;1.82;1.00;;;18.50;62.50;;;;;;928646;149;27334;-75
2023/04/13 11:27:54;;;;;;;1.17;1.07;;;18.50;61.40;;;;;;931266;149;27432;-75
2023/04/13 11:30:21;;;;;;;2.00;1.10;;;18.40;62.00;;;;;;949659;147;27430;-76
2023/04/13 11:32:49;;;;;;;1.20;0.72;;;18.30;62.50;;;;;;945681;147;27363;-76
2023/04/13 11:35:14;;;;;;;1.75;0.88;;;18.30;62.40;;;;;;937281;148;27310;-75
2023/04/13 11:37:41;;;;;;;1.15;0.98;;;18.30;63.50;;;;;;937824;148;27321;-76
2023/04/13 11:40:20;;;;;;;1.27;1.07;;;18.40;64.40;;;;;;937096;148;27342;-76
2023/04/13 11:42:43;;;;;;;1.62;0.90;;;18.40;64.70;;;;;;934524;149;27455;-76
2023/04/13 11:45:10;;;;;;;1.87;1.02;;;18.40;64.60;;;;;;938545;149;27400;-75
2023/04/13 11:47:36;;;;;;;1.05;0.80;;;18.40;64.40;;;;;;932292;149;27418;-76
2023/04/13 11:50:03;;;;;;;2.37;1.00;;;18.40;64.30;;;;;;941486;146;27375;-75
2023/04/13 11:52:30;;;;;;;1.60;0.85;;;18.50;65.40;;;;;;951431;147;27463;-76
2023/04/13 11:54:56;;;;;;;1.40;0.75;;;18.50;64.50;;;;;;949852;147;27347;-76
2023/04/13 11:57:23;;;;;;;1.10;0.82;;;18.50;64.20;;;;;;942335;148;27416;-76
2023/04/13 11:59:52;;;;;;;1.10;0.98;;;18.60;64.00;;;;;;940588;149;27338;-76
2023/04/13 12:02:28;;;;;;;0.75;0.75;;;18.70;64.10;;;;;;940676;149;27380;-76
2023/04/13 12:04:55;;;;;;;2.30;1.07;;;18.80;63.50;;;;;;939867;149;27373;-76
2023/04/13 12:07:21;;;;;;;1.75;0.98;;;18.90;62.70;;;;;;941136;148;27343;-75
2023/04/13 12:09:48;;;;;;;1.62;1.00;;;18.90;62.80;;;;;;943019;148;27429;-75
2023/04/13 12:12:15;;;;;;;1.35;0.90;;;18.90;62.50;;;;;;922103;151;27547;-76
2023/04/13 12:14:41;;;;;;;1.75;0.88;;;18.90;62.00;;;;;;943844;151;27347;-76
2023/04/13 12:17:10;;;;;;;0.65;0.65;;;18.90;61.60;;;;;;944725;148;27300;-76
2023/04/13 12:19:40;;;;;;;1.15;0.75;;;18.90;61.40;;;;;;943416;148;27258;-76
2023/04/13 12:22:06;;;;;;;1.62;0.72;;;18.80;61.40;;;;;;937732;150;27369;-76
2023/04/13 12:24:36;;;;;;;0.80;0.80;;;18.80;61.60;;;;;;937679;150;27381;-76
2023/04/13 12:27:05;;;;;;;1.15;0.85;;;18.70;61.60;;;;;;942642;148;27323;-75
2023/04/13 12:29:29;;;;;;;0.80;0.80;;;18.60;61.40;;;;;;927137;150;27416;-75
2023/04/13 12:31:59;;;;;;;2.87;1.22;;;18.60;61.20;;;;;;939167;149;27326;-76
2023/04/13 12:34:25;;;;;;;2.33;0.90;;;18.50;60.40;;;;;;940322;149;27458;-76
2023/04/13 12:36:51;;;;;;;1.75;0.90;;;18.40;60.50;;;;;;942359;149;27443;-76
2023/04/13 12:39:18;;;;;;;1.82;0.90;;;18.40;61.10;;;;;;942264;148;27410;-76
2023/04/13 12:41:45;;;;;;;2.65;1.02;;;18.30;61.20;;;;;;922813;149;27407;-76
2023/04/13 12:44:11;;;;;;;1.20;0.78;;;18.30;61.30;;;;;;941158;149;27552;-76
2023/04/13 12:46:38;;;;;;;1.95;0.90;;;18.30;61.30;;;;;;941042;149;27380;-76
2023/04/13 12:49:04;;;;;;;0.70;0.70;;;18.30;61.30;;;;;;941745;149;27322;-76